sensor_id;sensor_type;location;lat;lon;timestamp;P1;durP1;ratioP1;P2;durP2;ratioP2
13267;SDS011;6702;47.068;15.458;2023-06-14T00:01:32;4.60;;;4.20;;
13267;SDS011;6702;47.068;15.458;2023-06-14T00:04:38;4.67;;;4.20;;
13267;SDS011;6702;47.068;15.458;2023-06-14T00:07:43;3.30;;;3.00;;
13267;SDS011;6702;47.068;15.458;2023-06-14T00:10:46;3.70;;;3.40;;
13267;SDS011;6702;47.068;15.458;2023-06-14T00:13:49;4.10;;;3.60;;
13267;SDS011;6702;47.068;15.458;2023-06-14T00:16:53;4.40;;;4.00;;
13267;SDS011;6702;47.068;15.458;2023-06-14T00:20:01;3.80;;;3.50;;
13267;SDS011;6702;47.068;15.458;2023-06-14T00:23:08;4.67;;;4.27;;
13267;SDS011;6702;47.068;15.458;2023-06-14T00:26:11;4.87;;;4.47;;
13267;SDS011;6702;47.068;15.458;2023-06-14T00:29:14;3.83;;;3.50;;
13267;SDS011;6702;47.068;15.458;2023-06-14T00:32:18;4.13;;;3.83;;
13267;SDS011;6702;47.068;15.458;2023-06-14T00:35:27;5.33;;;4.30;;
13267;SDS011;6702;47.068;15.458;2023-06-14T00:38:30;4.63;;;4.10;;
13267;SDS011;6702;47.068;15.458;2023-06-14T00:41:33;4.00;;;3.70;;
13267;SDS011;6702;47.068;15.458;2023-06-14T00:44:36;4.03;;;3.73;;
13267;SDS011;6702;47.068;15.458;2023-06-14T00:47:40;4.00;;;3.50;;
13267;SDS011;6702;47.068;15.458;2023-06-14T00:50:46;5.73;;;3.90;;
13267;SDS011;6702;47.068;15.458;2023-06-14T00:53:51;4.37;;;3.43;;
13267;SDS011;6702;47.068;15.458;2023-06-14T00:56:54;4.33;;;3.93;;
13267;SDS011;6702;47.068;15.458;2023-06-14T00:59:58;6.20;;;3.83;;
13267;SDS011;6702;47.068;15.458;2023-06-14T01:03:01;4.93;;;4.43;;
13267;SDS011;6702;47.068;15.458;2023-06-14T01:06:10;3.80;;;3.50;;
13267;SDS011;6702;47.068;15.458;2023-06-14T01:09:30;6.70;;;3.50;;
13267;SDS011;6702;47.068;15.458;2023-06-14T01:12:42;5.10;;;4.60;;
13267;SDS011;6702;47.068;15.458;2023-06-14T01:15:51;3.80;;;3.43;;
13267;SDS011;6702;47.068;15.458;2023-06-14T01:18:55;4.93;;;4.43;;
13267;SDS011;6702;47.068;15.458;2023-06-14T01:22:00;4.27;;;3.87;;
13267;SDS011;6702;47.068;15.458;2023-06-14T01:25:06;4.30;;;3.90;;
13267;SDS011;6702;47.068;15.458;2023-06-14T01:28:10;4.90;;;4.17;;
13267;SDS011;6702;47.068;15.458;2023-06-14T01:31:16;4.87;;;4.00;;
13267;SDS011;6702;47.068;15.458;2023-06-14T01:34:20;4.13;;;3.80;;
13267;SDS011;6702;47.068;15.458;2023-06-14T01:37:23;4.93;;;3.83;;
13267;SDS011;6702;47.068;15.458;2023-06-14T01:40:28;4.53;;;4.00;;
13267;SDS011;6702;47.068;15.458;2023-06-14T01:43:33;5.07;;;4.57;;
13267;SDS011;6702;47.068;15.458;2023-06-14T01:46:37;4.43;;;4.03;;
13267;SDS011;6702;47.068;15.458;2023-06-14T01:49:40;5.43;;;4.07;;
13267;SDS011;6702;47.068;15.458;2023-06-14T01:52:44;4.40;;;4.00;;
13267;SDS011;6702;47.068;15.458;2023-06-14T01:55:48;5.03;;;4.30;;
13267;SDS011;6702;47.068;15.458;2023-06-14T01:58:51;4.60;;;4.20;;
13267;SDS011;6702;47.068;15.458;2023-06-14T02:01:55;5.03;;;4.53;;
13267;SDS011;6702;47.068;15.458;2023-06-14T02:04:58;5.67;;;4.57;;
13267;SDS011;6702;47.068;15.458;2023-06-14T02:08:01;4.43;;;4.03;;
13267;SDS011;6702;47.068;15.458;2023-06-14T02:11:06;4.57;;;3.87;;
13267;SDS011;6702;47.068;15.458;2023-06-14T02:14:09;4.67;;;3.87;;
13267;SDS011;6702;47.068;15.458;2023-06-14T02:17:13;4.30;;;3.90;;
13267;SDS011;6702;47.068;15.458;2023-06-14T02:20:17;3.93;;;3.60;;
13267;SDS011;6702;47.068;15.458;2023-06-14T02:23:20;4.00;;;3.60;;
13267;SDS011;6702;47.068;15.458;2023-06-14T02:26:25;4.37;;;3.70;;
13267;SDS011;6702;47.068;15.458;2023-06-14T02:29:30;4.67;;;4.27;;
13267;SDS011;6702;47.068;15.458;2023-06-14T02:32:33;4.17;;;3.77;;
13267;SDS011;6702;47.068;15.458;2023-06-14T02:35:37;6.57;;;3.90;;
13267;SDS011;6702;47.068;15.458;2023-06-14T02:38:41;4.57;;;4.17;;
13267;SDS011;6702;47.068;15.458;2023-06-14T02:41:46;4.20;;;3.80;;
13267;SDS011;6702;47.068;15.458;2023-06-14T02:44:49;4.10;;;3.80;;
13267;SDS011;6702;47.068;15.458;2023-06-14T02:47:53;5.20;;;4.50;;
13267;SDS011;6702;47.068;15.458;2023-06-14T02:50:57;4.23;;;3.87;;
13267;SDS011;6702;47.068;15.458;2023-06-14T02:54:00;6.17;;;4.20;;
13267;SDS011;6702;47.068;15.458;2023-06-14T02:57:05;4.77;;;3.93;;
13267;SDS011;6702;47.068;15.458;2023-06-14T03:00:09;4.20;;;3.80;;
13267;SDS011;6702;47.068;15.458;2023-06-14T03:03:15;4.57;;;3.80;;
13267;SDS011;6702;47.068;15.458;2023-06-14T03:06:19;4.73;;;4.10;;
13267;SDS011;6702;47.068;15.458;2023-06-14T03:09:26;7.83;;;4.00;;
13267;SDS011;6702;47.068;15.458;2023-06-14T03:12:31;3.70;;;3.40;;
13267;SDS011;6702;47.068;15.458;2023-06-14T03:15:34;5.00;;;4.03;;
13267;SDS011;6702;47.068;15.458;2023-06-14T03:18:37;4.13;;;3.73;;
13267;SDS011;6702;47.068;15.458;2023-06-14T03:21:40;4.33;;;3.93;;
13267;SDS011;6702;47.068;15.458;2023-06-14T03:24:46;4.23;;;3.80;;
13267;SDS011;6702;47.068;15.458;2023-06-14T03:27:50;4.60;;;4.10;;
13267;SDS011;6702;47.068;15.458;2023-06-14T03:30:53;4.40;;;4.00;;
13267;SDS011;6702;47.068;15.458;2023-06-14T03:33:57;4.13;;;3.73;;
13267;SDS011;6702;47.068;15.458;2023-06-14T03:37:00;4.10;;;3.70;;
13267;SDS011;6702;47.068;15.458;2023-06-14T03:40:04;6.37;;;3.93;;
13267;SDS011;6702;47.068;15.458;2023-06-14T03:43:09;4.23;;;3.83;;
13267;SDS011;6702;47.068;15.458;2023-06-14T03:46:13;8.20;;;4.23;;
13267;SDS011;6702;47.068;15.458;2023-06-14T03:49:16;4.87;;;3.90;;
13267;SDS011;6702;47.068;15.458;2023-06-14T03:52:19;4.10;;;3.77;;
13267;SDS011;6702;47.068;15.458;2023-06-14T03:55:23;4.60;;;4.17;;
13267;SDS011;6702;47.068;15.458;2023-06-14T03:58:33;4.77;;;4.37;;
13267;SDS011;6702;47.068;15.458;2023-06-14T04:01:36;4.60;;;3.87;;
13267;SDS011;6702;47.068;15.458;2023-06-14T04:04:41;3.83;;;3.53;;
13267;SDS011;6702;47.068;15.458;2023-06-14T04:07:46;4.27;;;3.73;;
13267;SDS011;6702;47.068;15.458;2023-06-14T04:10:51;5.00;;;3.87;;
13267;SDS011;6702;47.068;15.458;2023-06-14T04:13:56;3.60;;;3.30;;
13267;SDS011;6702;47.068;15.458;2023-06-14T04:17:00;3.90;;;3.60;;
13267;SDS011;6702;47.068;15.458;2023-06-14T04:20:05;4.23;;;3.93;;
13267;SDS011;6702;47.068;15.458;2023-06-14T04:23:11;5.30;;;4.67;;
13267;SDS011;6702;47.068;15.458;2023-06-14T04:26:15;4.20;;;3.90;;
13267;SDS011;6702;47.068;15.458;2023-06-14T04:29:20;5.23;;;4.73;;
13267;SDS011;6702;47.068;15.458;2023-06-14T04:32:24;4.77;;;4.37;;
13267;SDS011;6702;47.068;15.458;2023-06-14T04:35:28;4.03;;;3.63;;
13267;SDS011;6702;47.068;15.458;2023-06-14T04:38:33;4.67;;;3.73;;
13267;SDS011;6702;47.068;15.458;2023-06-14T04:41:36;3.93;;;3.53;;
13267;SDS011;6702;47.068;15.458;2023-06-14T04:44:41;3.60;;;3.30;;
13267;SDS011;6702;47.068;15.458;2023-06-14T04:47:44;4.93;;;4.13;;
13267;SDS011;6702;47.068;15.458;2023-06-14T04:50:48;4.47;;;3.70;;
13267;SDS011;6702;47.068;15.458;2023-06-14T04:53:54;6.47;;;4.17;;
13267;SDS011;6702;47.068;15.458;2023-06-14T04:56:58;5.63;;;4.03;;
13267;SDS011;6702;47.068;15.458;2023-06-14T05:00:03;5.80;;;4.20;;
13267;SDS011;6702;47.068;15.458;2023-06-14T05:03:07;4.33;;;3.30;;
13267;SDS011;6702;47.068;15.458;2023-06-14T05:06:14;4.00;;;3.67;;
13267;SDS011;6702;47.068;15.458;2023-06-14T05:09:18;5.93;;;4.00;;
13267;SDS011;6702;47.068;15.458;2023-06-14T05:12:22;4.83;;;4.30;;
13267;SDS011;6702;47.068;15.458;2023-06-14T05:15:27;4.27;;;3.87;;
13267;SDS011;6702;47.068;15.458;2023-06-14T05:18:30;4.57;;;4.17;;
13267;SDS011;6702;47.068;15.458;2023-06-14T05:21:36;5.33;;;4.17;;
13267;SDS011;6702;47.068;15.458;2023-06-14T05:24:44;4.50;;;4.10;;
13267;SDS011;6702;47.068;15.458;2023-06-14T05:27:49;3.90;;;3.60;;
13267;SDS011;6702;47.068;15.458;2023-06-14T05:30:53;5.47;;;4.73;;
13267;SDS011;6702;47.068;15.458;2023-06-14T05:33:56;5.07;;;4.20;;
13267;SDS011;6702;47.068;15.458;2023-06-14T05:37:00;4.67;;;4.23;;
13267;SDS011;6702;47.068;15.458;2023-06-14T05:40:05;5.53;;;4.20;;
13267;SDS011;6702;47.068;15.458;2023-06-14T05:43:10;5.53;;;4.17;;
13267;SDS011;6702;47.068;15.458;2023-06-14T05:46:14;5.73;;;4.70;;
13267;SDS011;6702;47.068;15.458;2023-06-14T05:49:23;7.40;;;4.23;;
13267;SDS011;6702;47.068;15.458;2023-06-14T05:52:26;4.73;;;4.23;;
13267;SDS011;6702;47.068;15.458;2023-06-14T05:55:30;4.77;;;4.27;;
13267;SDS011;6702;47.068;15.458;2023-06-14T05:58:34;6.43;;;4.23;;
13267;SDS011;6702;47.068;15.458;2023-06-14T06:01:38;5.30;;;4.43;;
13267;SDS011;6702;47.068;15.458;2023-06-14T06:04:42;7.17;;;4.50;;
13267;SDS011;6702;47.068;15.458;2023-06-14T06:07:45;5.17;;;4.73;;
13267;SDS011;6702;47.068;15.458;2023-06-14T06:10:49;4.40;;;4.00;;
13267;SDS011;6702;47.068;15.458;2023-06-14T06:13:52;4.93;;;4.40;;
13267;SDS011;6702;47.068;15.458;2023-06-14T06:16:57;4.80;;;4.40;;
13267;SDS011;6702;47.068;15.458;2023-06-14T06:20:00;4.77;;;3.83;;
13267;SDS011;6702;47.068;15.458;2023-06-14T06:23:03;4.63;;;4.17;;
13267;SDS011;6702;47.068;15.458;2023-06-14T06:26:07;5.70;;;4.83;;
13267;SDS011;6702;47.068;15.458;2023-06-14T06:29:10;7.50;;;5.90;;
13267;SDS011;6702;47.068;15.458;2023-06-14T06:32:15;4.30;;;3.90;;
13267;SDS011;6702;47.068;15.458;2023-06-14T06:35:18;5.80;;;5.00;;
13267;SDS011;6702;47.068;15.458;2023-06-14T06:38:21;5.07;;;4.60;;
13267;SDS011;6702;47.068;15.458;2023-06-14T06:41:24;5.63;;;5.10;;
13267;SDS011;6702;47.068;15.458;2023-06-14T06:44:28;7.27;;;4.90;;
13267;SDS011;6702;47.068;15.458;2023-06-14T06:47:33;4.97;;;4.20;;
13267;SDS011;6702;47.068;15.458;2023-06-14T06:50:36;5.47;;;4.97;;
13267;SDS011;6702;47.068;15.458;2023-06-14T06:53:41;7.93;;;4.90;;
13267;SDS011;6702;47.068;15.458;2023-06-14T06:56:50;5.77;;;4.80;;
13267;SDS011;6702;47.068;15.458;2023-06-14T06:59:53;4.87;;;4.37;;
13267;SDS011;6702;47.068;15.458;2023-06-14T07:02:58;4.83;;;4.33;;
13267;SDS011;6702;47.068;15.458;2023-06-14T07:06:01;5.03;;;4.03;;
13267;SDS011;6702;47.068;15.458;2023-06-14T07:09:05;4.40;;;3.87;;
13267;SDS011;6702;47.068;15.458;2023-06-14T07:12:13;4.87;;;4.47;;
13267;SDS011;6702;47.068;15.458;2023-06-14T07:15:16;6.67;;;4.60;;
13267;SDS011;6702;47.068;15.458;2023-06-14T07:18:21;4.33;;;4.03;;
13267;SDS011;6702;47.068;15.458;2023-06-14T07:21:24;4.27;;;3.87;;
13267;SDS011;6702;47.068;15.458;2023-06-14T07:24:28;4.43;;;4.03;;
13267;SDS011;6702;47.068;15.458;2023-06-14T07:27:31;7.50;;;4.53;;
13267;SDS011;6702;47.068;15.458;2023-06-14T07:30:35;5.87;;;4.73;;
13267;SDS011;6702;47.068;15.458;2023-06-14T07:33:40;5.63;;;4.57;;
13267;SDS011;6702;47.068;15.458;2023-06-14T07:36:44;5.80;;;4.40;;
13267;SDS011;6702;47.068;15.458;2023-06-14T07:39:48;7.83;;;5.27;;
13267;SDS011;6702;47.068;15.458;2023-06-14T07:42:52;5.77;;;5.27;;
13267;SDS011;6702;47.068;15.458;2023-06-14T07:45:56;5.23;;;4.73;;
13267;SDS011;6702;47.068;15.458;2023-06-14T07:49:09;6.10;;;4.63;;
13267;SDS011;6702;47.068;15.458;2023-06-14T07:52:13;5.27;;;4.77;;
13267;SDS011;6702;47.068;15.458;2023-06-14T07:55:16;5.43;;;5.00;;
13267;SDS011;6702;47.068;15.458;2023-06-14T07:58:20;5.17;;;4.67;;
13267;SDS011;6702;47.068;15.458;2023-06-14T08:01:23;5.43;;;4.93;;
13267;SDS011;6702;47.068;15.458;2023-06-14T08:04:30;7.03;;;6.00;;
13267;SDS011;6702;47.068;15.458;2023-06-14T08:07:34;5.10;;;4.60;;
13267;SDS011;6702;47.068;15.458;2023-06-14T08:10:37;6.20;;;5.43;;
13267;SDS011;6702;47.068;15.458;2023-06-14T08:13:40;5.90;;;5.37;;
13267;SDS011;6702;47.068;15.458;2023-06-14T08:16:44;5.40;;;4.87;;
13267;SDS011;6702;47.068;15.458;2023-06-14T08:19:48;8.00;;;5.77;;
13267;SDS011;6702;47.068;15.458;2023-06-14T08:22:52;5.60;;;5.10;;
13267;SDS011;6702;47.068;15.458;2023-06-14T08:25:56;6.37;;;5.77;;
13267;SDS011;6702;47.068;15.458;2023-06-14T08:29:01;6.40;;;5.10;;
13267;SDS011;6702;47.068;15.458;2023-06-14T08:32:05;5.40;;;5.00;;
13267;SDS011;6702;47.068;15.458;2023-06-14T08:35:10;6.10;;;4.97;;
13267;SDS011;6702;47.068;15.458;2023-06-14T08:38:14;5.70;;;5.00;;
13267;SDS011;6702;47.068;15.458;2023-06-14T08:41:21;6.13;;;5.53;;
13267;SDS011;6702;47.068;15.458;2023-06-14T08:44:26;6.30;;;5.70;;
13267;SDS011;6702;47.068;15.458;2023-06-14T08:47:29;6.33;;;5.73;;
13267;SDS011;6702;47.068;15.458;2023-06-14T08:50:43;5.73;;;5.33;;
13267;SDS011;6702;47.068;15.458;2023-06-14T08:53:51;6.13;;;5.53;;
13267;SDS011;6702;47.068;15.458;2023-06-14T08:56:56;7.30;;;6.60;;
13267;SDS011;6702;47.068;15.458;2023-06-14T08:59:59;8.33;;;6.77;;
13267;SDS011;6702;47.068;15.458;2023-06-14T09:03:11;6.93;;;5.87;;
13267;SDS011;6702;47.068;15.458;2023-06-14T09:06:19;6.40;;;5.00;;
13267;SDS011;6702;47.068;15.458;2023-06-14T09:09:24;6.13;;;5.63;;
13267;SDS011;6702;47.068;15.458;2023-06-14T09:12:28;7.43;;;6.03;;
13267;SDS011;6702;47.068;15.458;2023-06-14T09:15:33;6.30;;;5.70;;
13267;SDS011;6702;47.068;15.458;2023-06-14T09:18:37;6.00;;;5.50;;
13267;SDS011;6702;47.068;15.458;2023-06-14T09:21:43;5.90;;;5.40;;
13267;SDS011;6702;47.068;15.458;2023-06-14T09:24:50;7.20;;;6.60;;
13267;SDS011;6702;47.068;15.458;2023-06-14T09:27:53;7.10;;;5.40;;
13267;SDS011;6702;47.068;15.458;2023-06-14T09:30:56;5.20;;;4.50;;
13267;SDS011;6702;47.068;15.458;2023-06-14T09:34:01;4.10;;;3.70;;
13267;SDS011;6702;47.068;15.458;2023-06-14T09:37:06;5.77;;;5.27;;
13267;SDS011;6702;47.068;15.458;2023-06-14T09:40:10;5.90;;;5.40;;
13267;SDS011;6702;47.068;15.458;2023-06-14T09:43:13;4.93;;;4.27;;
13267;SDS011;6702;47.068;15.458;2023-06-14T09:46:16;5.23;;;4.77;;
13267;SDS011;6702;47.068;15.458;2023-06-14T09:49:20;5.43;;;4.93;;
13267;SDS011;6702;47.068;15.458;2023-06-14T09:52:26;5.77;;;5.17;;
13267;SDS011;6702;47.068;15.458;2023-06-14T09:55:31;6.20;;;4.50;;
13267;SDS011;6702;47.068;15.458;2023-06-14T09:58:38;4.80;;;4.30;;
13267;SDS011;6702;47.068;15.458;2023-06-14T10:01:46;5.53;;;4.63;;
13267;SDS011;6702;47.068;15.458;2023-06-14T10:04:53;5.03;;;4.53;;
13267;SDS011;6702;47.068;15.458;2023-06-14T10:08:05;5.20;;;4.60;;
13267;SDS011;6702;47.068;15.458;2023-06-14T10:11:11;5.37;;;4.87;;
13267;SDS011;6702;47.068;15.458;2023-06-14T10:14:15;5.40;;;4.90;;
13267;SDS011;6702;47.068;15.458;2023-06-14T10:17:25;5.60;;;5.10;;
13267;SDS011;6702;47.068;15.458;2023-06-14T10:20:33;6.80;;;4.87;;
13267;SDS011;6702;47.068;15.458;2023-06-14T10:23:44;7.70;;;5.07;;
13267;SDS011;6702;47.068;15.458;2023-06-14T10:26:50;4.40;;;4.10;;
13267;SDS011;6702;47.068;15.458;2023-06-14T10:30:04;5.77;;;4.23;;
13267;SDS011;6702;47.068;15.458;2023-06-14T10:33:09;6.83;;;4.53;;
13267;SDS011;6702;47.068;15.458;2023-06-14T10:36:27;4.90;;;4.40;;
13267;SDS011;6702;47.068;15.458;2023-06-14T10:39:40;6.63;;;4.87;;
13267;SDS011;6702;47.068;15.458;2023-06-14T10:42:50;4.33;;;3.93;;
13267;SDS011;6702;47.068;15.458;2023-06-14T10:46:14;4.60;;;4.20;;
13267;SDS011;6702;47.068;15.458;2023-06-14T10:49:18;4.27;;;3.90;;
13267;SDS011;6702;47.068;15.458;2023-06-14T10:52:22;4.63;;;4.23;;
13267;SDS011;6702;47.068;15.458;2023-06-14T10:55:31;4.40;;;4.00;;
13267;SDS011;6702;47.068;15.458;2023-06-14T10:58:38;4.03;;;3.63;;
13267;SDS011;6702;47.068;15.458;2023-06-14T11:01:45;5.30;;;4.90;;
13267;SDS011;6702;47.068;15.458;2023-06-14T11:04:59;4.23;;;3.83;;
13267;SDS011;6702;47.068;15.458;2023-06-14T11:08:23;3.90;;;3.60;;
13267;SDS011;6702;47.068;15.458;2023-06-14T11:11:37;3.40;;;3.10;;
13267;SDS011;6702;47.068;15.458;2023-06-14T11:14:45;4.67;;;4.10;;
13267;SDS011;6702;47.068;15.458;2023-06-14T11:17:50;4.83;;;4.40;;
13267;SDS011;6702;47.068;15.458;2023-06-14T11:20:55;4.80;;;4.33;;
13267;SDS011;6702;47.068;15.458;2023-06-14T11:23:58;4.97;;;4.27;;
13267;SDS011;6702;47.068;15.458;2023-06-14T11:27:03;4.13;;;3.77;;
13267;SDS011;6702;47.068;15.458;2023-06-14T11:30:07;4.30;;;3.90;;
13267;SDS011;6702;47.068;15.458;2023-06-14T11:33:14;4.73;;;3.80;;
13267;SDS011;6702;47.068;15.458;2023-06-14T11:36:22;5.00;;;4.60;;
13267;SDS011;6702;47.068;15.458;2023-06-14T11:39:26;6.70;;;4.57;;
13267;SDS011;6702;47.068;15.458;2023-06-14T11:42:30;3.87;;;3.57;;
13267;SDS011;6702;47.068;15.458;2023-06-14T11:45:34;3.53;;;3.23;;
13267;SDS011;6702;47.068;15.458;2023-06-14T11:48:39;4.20;;;3.80;;
13267;SDS011;6702;47.068;15.458;2023-06-14T11:51:44;4.53;;;3.87;;
13267;SDS011;6702;47.068;15.458;2023-06-14T11:54:48;3.37;;;3.07;;
13267;SDS011;6702;47.068;15.458;2023-06-14T11:57:54;4.43;;;4.03;;
13267;SDS011;6702;47.068;15.458;2023-06-14T12:00:58;4.60;;;4.27;;
13267;SDS011;6702;47.068;15.458;2023-06-14T12:04:02;5.10;;;4.70;;
13267;SDS011;6702;47.068;15.458;2023-06-14T12:07:09;4.90;;;4.50;;
13267;SDS011;6702;47.068;15.458;2023-06-14T12:10:13;4.30;;;3.90;;
13267;SDS011;6702;47.068;15.458;2023-06-14T12:13:18;4.07;;;3.77;;
13267;SDS011;6702;47.068;15.458;2023-06-14T12:16:22;4.13;;;3.73;;
13267;SDS011;6702;47.068;15.458;2023-06-14T12:19:33;4.70;;;4.30;;
13267;SDS011;6702;47.068;15.458;2023-06-14T12:22:47;4.60;;;4.20;;
13267;SDS011;6702;47.068;15.458;2023-06-14T12:25:53;3.90;;;3.60;;
13267;SDS011;6702;47.068;15.458;2023-06-14T12:28:58;4.30;;;3.90;;
13267;SDS011;6702;47.068;15.458;2023-06-14T12:32:02;4.30;;;4.00;;
13267;SDS011;6702;47.068;15.458;2023-06-14T12:35:05;3.90;;;3.60;;
13267;SDS011;6702;47.068;15.458;2023-06-14T12:38:09;4.80;;;4.30;;
13267;SDS011;6702;47.068;15.458;2023-06-14T12:41:12;4.17;;;3.73;;
13267;SDS011;6702;47.068;15.458;2023-06-14T12:44:17;4.87;;;4.47;;
13267;SDS011;6702;47.068;15.458;2023-06-14T12:47:20;4.43;;;4.13;;
13267;SDS011;6702;47.068;15.458;2023-06-14T12:50:24;4.97;;;4.17;;
13267;SDS011;6702;47.068;15.458;2023-06-14T12:53:27;4.27;;;3.50;;
13267;SDS011;6702;47.068;15.458;2023-06-14T12:56:31;4.80;;;4.40;;
13267;SDS011;6702;47.068;15.458;2023-06-14T12:59:35;4.93;;;3.90;;
13267;SDS011;6702;47.068;15.458;2023-06-14T13:02:38;5.13;;;4.67;;
13267;SDS011;6702;47.068;15.458;2023-06-14T13:05:42;4.10;;;3.80;;
13267;SDS011;6702;47.068;15.458;2023-06-14T13:08:45;4.63;;;3.60;;
13267;SDS011;6702;47.068;15.458;2023-06-14T13:11:48;4.80;;;4.40;;
13267;SDS011;6702;47.068;15.458;2023-06-14T13:14:53;5.00;;;4.50;;
13267;SDS011;6702;47.068;15.458;2023-06-14T13:17:56;4.87;;;4.50;;
13267;SDS011;6702;47.068;15.458;2023-06-14T13:20:59;4.83;;;4.30;;
13267;SDS011;6702;47.068;15.458;2023-06-14T13:24:03;4.23;;;3.90;;
13267;SDS011;6702;47.068;15.458;2023-06-14T13:27:06;4.53;;;4.13;;
13267;SDS011;6702;47.068;15.458;2023-06-14T13:30:11;5.60;;;5.10;;
13267;SDS011;6702;47.068;15.458;2023-06-14T13:33:16;7.27;;;4.30;;
13267;SDS011;6702;47.068;15.458;2023-06-14T13:36:19;6.30;;;5.20;;
13267;SDS011;6702;47.068;15.458;2023-06-14T13:39:22;6.47;;;5.43;;
13267;SDS011;6702;47.068;15.458;2023-06-14T13:42:26;5.43;;;4.57;;
13267;SDS011;6702;47.068;15.458;2023-06-14T13:45:34;5.40;;;4.70;;
13267;SDS011;6702;47.068;15.458;2023-06-14T13:48:37;5.70;;;4.27;;
13267;SDS011;6702;47.068;15.458;2023-06-14T13:51:41;4.07;;;3.73;;
13267;SDS011;6702;47.068;15.458;2023-06-14T13:54:44;4.83;;;4.20;;
13267;SDS011;6702;47.068;15.458;2023-06-14T13:57:49;4.57;;;4.17;;
13267;SDS011;6702;47.068;15.458;2023-06-14T14:00:54;4.90;;;4.40;;
13267;SDS011;6702;47.068;15.458;2023-06-14T14:03:58;6.33;;;4.07;;
13267;SDS011;6702;47.068;15.458;2023-06-14T14:07:02;11.53;;;6.17;;
13267;SDS011;6702;47.068;15.458;2023-06-14T14:10:06;6.07;;;5.47;;
13267;SDS011;6702;47.068;15.458;2023-06-14T14:13:10;4.90;;;4.43;;
13267;SDS011;6702;47.068;15.458;2023-06-14T14:16:15;4.40;;;4.10;;
13267;SDS011;6702;47.068;15.458;2023-06-14T14:19:18;5.07;;;4.67;;
13267;SDS011;6702;47.068;15.458;2023-06-14T14:22:22;4.90;;;4.43;;
13267;SDS011;6702;47.068;15.458;2023-06-14T14:25:25;5.53;;;4.67;;
13267;SDS011;6702;47.068;15.458;2023-06-14T14:28:28;4.10;;;3.80;;
13267;SDS011;6702;47.068;15.458;2023-06-14T14:31:33;5.17;;;4.77;;
13267;SDS011;6702;47.068;15.458;2023-06-14T14:34:36;6.20;;;5.30;;
13267;SDS011;6702;47.068;15.458;2023-06-14T14:37:41;4.73;;;4.30;;
13267;SDS011;6702;47.068;15.458;2023-06-14T14:40:44;5.20;;;4.60;;
13267;SDS011;6702;47.068;15.458;2023-06-14T14:43:47;6.33;;;4.73;;
13267;SDS011;6702;47.068;15.458;2023-06-14T14:46:52;4.90;;;4.40;;
13267;SDS011;6702;47.068;15.458;2023-06-14T14:49:56;4.93;;;4.27;;
13267;SDS011;6702;47.068;15.458;2023-06-14T14:53:02;4.80;;;4.30;;
13267;SDS011;6702;47.068;15.458;2023-06-14T14:56:05;4.97;;;4.57;;
13267;SDS011;6702;47.068;15.458;2023-06-14T14:59:08;4.10;;;3.80;;
13267;SDS011;6702;47.068;15.458;2023-06-14T15:02:13;4.40;;;4.00;;
13267;SDS011;6702;47.068;15.458;2023-06-14T15:05:16;4.90;;;4.40;;
13267;SDS011;6702;47.068;15.458;2023-06-14T15:08:19;4.90;;;4.40;;
13267;SDS011;6702;47.068;15.458;2023-06-14T15:11:23;7.93;;;4.27;;
13267;SDS011;6702;47.068;15.458;2023-06-14T15:14:26;4.67;;;4.27;;
13267;SDS011;6702;47.068;15.458;2023-06-14T15:17:31;5.23;;;4.80;;
13267;SDS011;6702;47.068;15.458;2023-06-14T15:20:34;4.87;;;4.37;;
13267;SDS011;6702;47.068;15.458;2023-06-14T15:23:38;4.77;;;4.37;;
13267;SDS011;6702;47.068;15.458;2023-06-14T15:26:41;4.90;;;4.50;;
13267;SDS011;6702;47.068;15.458;2023-06-14T15:29:44;4.87;;;4.40;;
13267;SDS011;6702;47.068;15.458;2023-06-14T15:32:53;4.53;;;4.13;;
13267;SDS011;6702;47.068;15.458;2023-06-14T15:35:56;5.17;;;4.60;;
13267;SDS011;6702;47.068;15.458;2023-06-14T15:38:59;4.83;;;4.33;;
13267;SDS011;6702;47.068;15.458;2023-06-14T15:42:02;5.83;;;4.40;;
13267;SDS011;6702;47.068;15.458;2023-06-14T15:45:07;5.30;;;4.80;;
13267;SDS011;6702;47.068;15.458;2023-06-14T15:48:13;5.10;;;4.50;;
13267;SDS011;6702;47.068;15.458;2023-06-14T15:51:16;5.90;;;4.57;;
13267;SDS011;6702;47.068;15.458;2023-06-14T15:54:19;4.63;;;4.20;;
13267;SDS011;6702;47.068;15.458;2023-06-14T15:57:22;4.73;;;4.27;;
13267;SDS011;6702;47.068;15.458;2023-06-14T16:00:25;6.50;;;4.67;;
13267;SDS011;6702;47.068;15.458;2023-06-14T16:03:30;4.60;;;4.20;;
13267;SDS011;6702;47.068;15.458;2023-06-14T16:06:33;6.43;;;5.90;;
13267;SDS011;6702;47.068;15.458;2023-06-14T16:09:37;5.57;;;4.77;;
13267;SDS011;6702;47.068;15.458;2023-06-14T16:12:41;5.70;;;4.37;;
13267;SDS011;6702;47.068;15.458;2023-06-14T16:15:44;5.50;;;5.00;;
13267;SDS011;6702;47.068;15.458;2023-06-14T16:18:48;4.80;;;4.40;;
13267;SDS011;6702;47.068;15.458;2023-06-14T16:21:52;5.93;;;5.50;;
13267;SDS011;6702;47.068;15.458;2023-06-14T16:24:55;4.77;;;4.37;;
13267;SDS011;6702;47.068;15.458;2023-06-14T16:27:58;5.03;;;4.60;;
13267;SDS011;6702;47.068;15.458;2023-06-14T16:31:01;5.63;;;4.87;;
13267;SDS011;6702;47.068;15.458;2023-06-14T16:34:06;4.93;;;4.53;;
13267;SDS011;6702;47.068;15.458;2023-06-14T16:37:12;5.00;;;4.53;;
13267;SDS011;6702;47.068;15.458;2023-06-14T16:40:16;6.03;;;4.47;;
13267;SDS011;6702;47.068;15.458;2023-06-14T16:43:19;5.00;;;4.60;;
13267;SDS011;6702;47.068;15.458;2023-06-14T16:46:27;5.53;;;5.03;;
13267;SDS011;6702;47.068;15.458;2023-06-14T16:49:32;5.50;;;5.00;;
13267;SDS011;6702;47.068;15.458;2023-06-14T16:52:36;6.63;;;5.50;;
13267;SDS011;6702;47.068;15.458;2023-06-14T16:55:39;5.43;;;4.93;;
13267;SDS011;6702;47.068;15.458;2023-06-14T16:58:43;5.47;;;4.97;;
13267;SDS011;6702;47.068;15.458;2023-06-14T17:01:50;5.27;;;4.87;;
13267;SDS011;6702;47.068;15.458;2023-06-14T17:04:55;5.30;;;4.90;;
13267;SDS011;6702;47.068;15.458;2023-06-14T17:07:59;6.67;;;5.90;;
13267;SDS011;6702;47.068;15.458;2023-06-14T17:11:02;5.83;;;5.10;;
13267;SDS011;6702;47.068;15.458;2023-06-14T17:14:05;5.30;;;4.90;;
13267;SDS011;6702;47.068;15.458;2023-06-14T17:17:09;6.20;;;4.27;;
13267;SDS011;6702;47.068;15.458;2023-06-14T17:20:14;5.07;;;4.67;;
13267;SDS011;6702;47.068;15.458;2023-06-14T17:23:17;5.17;;;4.77;;
13267;SDS011;6702;47.068;15.458;2023-06-14T17:26:20;7.10;;;4.90;;
13267;SDS011;6702;47.068;15.458;2023-06-14T17:29:24;4.63;;;4.23;;
13267;SDS011;6702;47.068;15.458;2023-06-14T17:32:28;5.60;;;4.73;;
13267;SDS011;6702;47.068;15.458;2023-06-14T17:35:33;4.87;;;4.47;;
13267;SDS011;6702;47.068;15.458;2023-06-14T17:38:36;5.83;;;5.23;;
13267;SDS011;6702;47.068;15.458;2023-06-14T17:41:39;5.10;;;4.60;;
13267;SDS011;6702;47.068;15.458;2023-06-14T17:44:43;9.43;;;5.33;;
13267;SDS011;6702;47.068;15.458;2023-06-14T17:47:46;4.97;;;4.57;;
13267;SDS011;6702;47.068;15.458;2023-06-14T17:50:53;4.13;;;3.83;;
13267;SDS011;6702;47.068;15.458;2023-06-14T17:53:56;8.90;;;5.20;;
13267;SDS011;6702;47.068;15.458;2023-06-14T17:57:00;5.70;;;5.13;;
13267;SDS011;6702;47.068;15.458;2023-06-14T18:00:03;4.97;;;4.50;;
13267;SDS011;6702;47.068;15.458;2023-06-14T18:03:07;5.63;;;5.10;;
13267;SDS011;6702;47.068;15.458;2023-06-14T18:06:12;5.60;;;4.87;;
13267;SDS011;6702;47.068;15.458;2023-06-14T18:09:15;5.37;;;4.93;;
13267;SDS011;6702;47.068;15.458;2023-06-14T18:12:18;5.20;;;4.80;;
13267;SDS011;6702;47.068;15.458;2023-06-14T18:15:22;5.43;;;5.00;;
13267;SDS011;6702;47.068;15.458;2023-06-14T18:18:25;5.60;;;5.10;;
13267;SDS011;6702;47.068;15.458;2023-06-14T18:21:30;8.20;;;5.63;;
13267;SDS011;6702;47.068;15.458;2023-06-14T18:24:33;6.30;;;5.13;;
13267;SDS011;6702;47.068;15.458;2023-06-14T18:27:36;5.57;;;5.07;;
13267;SDS011;6702;47.068;15.458;2023-06-14T18:30:39;5.70;;;5.20;;
13267;SDS011;6702;47.068;15.458;2023-06-14T18:33:43;5.20;;;4.70;;